Time;durP1;ratioP1;P1;durP2;ratioP2;P2;SDS_P1;SDS_P2;PMS_P1;PMS_P2;Temp;Humidity;BMP_temperature;BMP_pressure;BME280_temperature;BME280_humidity;BME280_pressure;Samples;Min_cycle;Max_cycle;Signal;HPM_P1;HPM_P2
2023/05/15 10:21:41;;;;;;;;;;;;;;;22.68;44.50;99782.75;4991877;27;4425464;-63
2023/05/15 10:24:09;;;;;;;;;;;;;;;22.76;43.68;99783.91;5150470;27;953;-64
2023/05/15 10:26:39;;;;;;;;;;;;;;;22.58;43.60;99777.22;5150320;27;841;-63
2023/05/15 10:29:09;;;;;;;;;;;;;;;22.30;43.06;99788.00;5148874;27;1974;-63
2023/05/15 10:31:36;;;;;;;;;;;;;;;21.82;43.62;99783.22;5150229;27;858;-64
2023/05/15 10:34:04;;;;;;;;;;;;;;;21.95;44.05;99782.19;5150271;27;893;-63
2023/05/15 10:36:32;;;;;;;;;;;;;;;22.34;43.17;99779.34;5150170;27;823;-64
2023/05/15 10:39:03;;;;;;;;;;;;;;;22.72;42.58;99772.81;5150134;27;803;-64
2023/05/15 10:41:32;;;;;;;;;;;;;;;22.86;42.90;99776.91;5150024;27;862;-66
2023/05/15 10:43:59;;;;;;;;;;;;;;;22.74;43.23;99781.56;5150245;27;881;-64
2023/05/15 10:46:28;;;;;;;;;;;;;;;22.72;43.22;99777.69;5150293;27;815;-64
2023/05/15 10:48:57;;;;;;;;;;;;;;;22.70;43.06;99768.94;5149813;27;1885;-67
2023/05/15 10:51:28;;;;;;;;;;;;;;;23.02;42.85;99758.72;5149905;27;881;-66
2023/05/15 10:53:55;;;;;;;;;;;;;;;23.97;42.05;99749.94;5149802;27;921;-63
2023/05/15 10:56:33;;;;;;;;;;;;;;;24.95;39.82;99759.56;5148462;27;1218;-64
2023/05/15 10:59:09;;;;;;;;;;;;;;;25.39;39.20;99759.09;5149823;27;842;-65
2023/05/15 11:01:37;;;;;;;;;;;;;;;25.80;38.51;99753.09;5149633;27;858;-64
2023/05/15 11:04:07;;;;;;;;;;;;;;;25.94;37.47;99753.41;5149878;27;842;-63
2023/05/15 11:06:35;;;;;;;;;;;;;;;26.15;36.47;99753.97;5149473;27;799;-65
2023/05/15 11:09:20;;;;;;;;;;;;;;;26.30;36.12;99750.91;5148089;27;1913;-64
2023/05/15 11:11:55;;;;;;;;;;;;;;;26.72;36.06;99751.97;5149519;27;834;-65
2023/05/15 11:14:26;;;;;;;;;;;;;;;26.92;34.91;99748.06;5149385;27;914;-64
2023/05/15 11:16:53;;;;;;;;;;;;;;;27.06;34.43;99749.88;5149690;27;826;-65
2023/05/15 11:19:25;;;;;;;;;;;;;;;26.96;34.03;99743.69;5149194;27;2448;-65
2023/05/15 11:21:59;;;;;;;;;;;;;;;26.67;33.61;99737.28;5140159;27;917;-67
2023/05/15 11:24:45;;;;;;;;;;;;;;;26.57;34.28;99729.56;5135451;27;830;-64
2023/05/15 11:27:16;;;;;;;;;;;;;;;26.85;34.07;99729.53;5135418;27;854;-64
2023/05/15 11:30:01;;;;;;;;;;;;;;;27.16;33.67;99739.00;5135303;27;815;-64
2023/05/15 11:32:39;;;;;;;;;;;;;;;27.33;33.32;99734.06;5135248;27;823;-65
2023/05/15 11:35:09;;;;;;;;;;;;;;;26.95;33.01;99736.47;5135484;27;815;-63
2023/05/15 11:37:36;;;;;;;;;;;;;;;26.71;33.00;99744.75;5135174;27;795;-63
2023/05/15 11:40:05;;;;;;;;;;;;;;;26.97;33.98;99736.75;5134972;27;1905;-63
2023/05/15 11:42:32;;;;;;;;;;;;;;;27.25;33.44;99727.41;5135120;27;869;-63
2023/05/15 11:44:59;;;;;;;;;;;;;;;27.31;32.89;99725.31;5135023;27;874;-63
2023/05/15 11:47:28;;;;;;;;;;;;;;;27.59;33.28;99725.22;5135090;27;823;-64
2023/05/15 11:49:55;;;;;;;;;;;;;;;27.33;33.62;99714.22;5134908;27;870;-64
2023/05/15 11:52:23;;;;;;;;;;;;;;;27.61;33.87;99705.59;5134909;27;902;-64
2023/05/15 11:54:50;;;;;;;;;;;;;;;27.73;33.46;99702.69;5134864;27;850;-66
2023/05/15 11:57:18;;;;;;;;;;;;;;;27.87;32.94;99705.22;5134805;27;854;-64
2023/05/15 11:59:45;;;;;;;;;;;;;;;28.38;32.63;99701.22;5134666;27;1877;-64
2023/05/15 12:02:12;;;;;;;;;;;;;;;28.60;32.87;99698.22;5134701;27;819;-63
2023/05/15 12:04:39;;;;;;;;;;;;;;;28.83;32.48;99701.63;5134746;27;857;-64
2023/05/15 12:07:07;;;;;;;;;;;;;;;29.03;31.64;99691.06;5134614;27;886;-64
2023/05/15 12:09:35;;;;;;;;;;;;;;;29.20;30.84;99685.22;5134471;27;842;-63
2023/05/15 12:12:04;;;;;;;;;;;;;;;28.29;31.62;99671.06;5134566;27;826;-64
2023/05/15 12:14:32;;;;;;;;;;;;;;;27.73;32.87;99660.88;5134418;27;882;-64
2023/05/15 12:17:05;;;;;;;;;;;;;;;27.34;32.56;99658.25;5134404;27;870;-63
2023/05/15 12:19:33;;;;;;;;;;;;;;;27.12;33.70;99667.56;5134320;27;1944;-63
2023/05/15 12:22:00;;;;;;;;;;;;;;;26.53;33.68;99667.44;5134539;27;866;-63
2023/05/15 12:24:27;;;;;;;;;;;;;;;26.05;34.47;99657.13;5134561;27;807;-66
2023/05/15 12:26:54;;;;;;;;;;;;;;;25.73;35.37;99657.31;5134474;27;886;-64
2023/05/15 12:29:21;;;;;;;;;;;;;;;25.62;35.41;99668.63;5134467;27;886;-63
2023/05/15 12:31:52;;;;;;;;;;;;;;;25.72;35.79;99669.94;5134270;27;850;-62
2023/05/15 12:34:20;;;;;;;;;;;;;;;25.71;35.46;99665.59;5133055;27;877;-63
2023/05/15 12:36:46;;;;;;;;;;;;;;;25.83;35.74;99664.28;5134014;27;795;-63
2023/05/15 12:39:14;;;;;;;;;;;;;;;25.54;36.29;99668.38;5133812;27;1910;-62
2023/05/15 12:41:41;;;;;;;;;;;;;;;25.01;37.36;99667.09;5133914;27;814;-62
2023/05/15 12:44:15;;;;;;;;;;;;;;;24.55;37.78;99651.13;5133831;27;959;-61
2023/05/15 12:46:41;;;;;;;;;;;;;;;24.36;38.44;99654.31;5133839;27;842;-63
2023/05/15 12:49:08;;;;;;;;;;;;;;;24.31;38.34;99657.09;5133786;27;877;-62
2023/05/15 12:51:41;;;;;;;;;;;;;;;24.53;37.98;99667.81;5133753;27;841;-63
2023/05/15 12:54:15;;;;;;;;;;;;;;;24.48;37.42;99677.00;5133616;27;839;-61
2023/05/15 12:56:43;;;;;;;;;;;;;;;24.44;37.64;99678.00;5133691;27;873;-62
2023/05/15 12:59:10;;;;;;;;;;;;;;;24.57;37.96;99680.44;5133446;27;1944;-64
2023/05/15 13:01:37;;;;;;;;;;;;;;;25.20;36.96;99679.56;5133744;27;834;-62
2023/05/15 13:04:04;;;;;;;;;;;;;;;25.98;35.83;99680.31;5133375;27;864;-64
2023/05/15 13:06:31;;;;;;;;;;;;;;;26.78;34.16;99684.69;5133801;27;811;-63
2023/05/15 13:08:58;;;;;;;;;;;;;;;27.64;33.75;99681.06;5133253;27;803;-62
2023/05/15 13:11:28;;;;;;;;;;;;;;;28.31;33.09;99696.88;5133311;27;874;-63
2023/05/15 13:13:55;;;;;;;;;;;;;;;28.73;31.72;99706.09;5133241;27;846;-63
2023/05/15 13:16:28;;;;;;;;;;;;;;;28.05;31.54;99705.88;5133240;27;827;-62
2023/05/15 13:18:56;;;;;;;;;;;;;;;26.98;32.87;99704.25;5133347;27;1009;-62
2023/05/15 13:21:23;;;;;;;;;;;;;;;26.02;34.36;99703.50;5132911;27;1233;-63
2023/05/15 13:23:51;;;;;;;;;;;;;;;24.99;35.80;99718.47;5131806;27;1174;-61
2023/05/15 13:26:18;;;;;;;;;;;;;;;24.20;37.35;99711.44;5133011;27;819;-61
2023/05/15 13:28:44;;;;;;;;;;;;;;;23.62;38.65;99711.31;5133195;27;815;-62
2023/05/15 13:31:12;;;;;;;;;;;;;;;23.20;40.14;99704.91;5133013;27;847;-63
2023/05/15 13:33:39;;;;;;;;;;;;;;;23.02;40.82;99705.16;5132929;27;869;-63
2023/05/15 13:36:06;;;;;;;;;;;;;;;22.71;41.29;99719.81;5132909;27;893;-62
2023/05/15 13:38:33;;;;;;;;;;;;;;;22.41;41.59;99708.56;5132912;27;827;-64
2023/05/15 13:41:00;;;;;;;;;;;;;;;22.25;42.17;99718.28;5132749;27;1913;-62
2023/05/15 13:43:26;;;;;;;;;;;;;;;22.12;41.70;99715.72;5132813;27;863;-63
2023/05/15 13:45:53;;;;;;;;;;;;;;;21.93;43.00;99717.16;5132543;27;862;-62
2023/05/15 13:48:19;;;;;;;;;;;;;;;21.75;43.87;99721.69;5132696;27;889;-63
2023/05/15 13:50:46;;;;;;;;;;;;;;;21.46;44.92;99725.19;5132613;27;897;-64
2023/05/15 13:53:15;;;;;;;;;;;;;;;21.17;45.55;99729.44;5132669;27;810;-62
2023/05/15 13:55:45;;;;;;;;;;;;;;;21.03;45.97;99729.38;5132619;27;865;-65
2023/05/15 13:58:12;;;;;;;;;;;;;;;20.74;47.10;99728.72;5132893;27;901;-63
2023/05/15 14:00:41;;;;;;;;;;;;;;;20.59;47.89;99736.28;5132525;27;1918;-65
2023/05/15 14:03:08;;;;;;;;;;;;;;;20.32;47.85;99734.28;5132752;27;846;-63
2023/05/15 14:05:35;;;;;;;;;;;;;;;20.21;48.25;99734.78;5133181;27;818;-62
2023/05/15 14:08:02;;;;;;;;;;;;;;;20.33;48.47;99730.22;5132811;27;846;-63
2023/05/15 14:10:28;;;;;;;;;;;;;;;20.44;47.90;99736.13;5132739;27;822;-61
2023/05/15 14:12:55;;;;;;;;;;;;;;;20.55;47.29;99719.56;5132571;27;862;-62
2023/05/15 14:15:22;;;;;;;;;;;;;;;20.64;47.19;99715.97;5132567;27;870;-62
2023/05/15 14:17:49;;;;;;;;;;;;;;;20.57;47.29;99710.69;5133216;27;807;-62
2023/05/15 14:20:16;;;;;;;;;;;;;;;20.54;47.82;99714.41;5132246;27;1956;-64
2023/05/15 14:22:43;;;;;;;;;;;;;;;20.41;48.29;99714.63;5132782;27;874;-62
2023/05/15 14:25:10;;;;;;;;;;;;;;;20.28;49.01;99709.19;5132333;27;831;-62
2023/05/15 14:27:38;;;;;;;;;;;;;;;20.16;49.56;99713.75;5132754;27;848;-63
2023/05/15 14:30:05;;;;;;;;;;;;;;;20.14;50.00;99718.25;5132791;27;858;-63
2023/05/15 14:32:32;;;;;;;;;;;;;;;20.22;50.01;99713.09;5132541;27;878;-62
2023/05/15 14:35:00;;;;;;;;;;;;;;;20.31;49.99;99707.47;5132750;27;858;-62
2023/05/15 14:37:27;;;;;;;;;;;;;;;20.15;49.71;99680.56;5132320;27;796;-62
2023/05/15 14:39:54;;;;;;;;;;;;;;;20.41;49.91;99717.41;5132203;27;1974;-64
2023/05/15 14:42:21;;;;;;;;;;;;;;;20.56;49.46;99720.34;5132411;27;854;-63
2023/05/15 14:44:48;;;;;;;;;;;;;;;20.79;49.22;99724.50;5132361;27;874;-63
2023/05/15 14:47:15;;;;;;;;;;;;;;;20.69;49.38;99723.75;5132248;27;870;-63
2023/05/15 14:49:42;;;;;;;;;;;;;;;20.56;49.88;99726.72;5132362;27;1031;-62
2023/05/15 14:52:10;;;;;;;;;;;;;;;20.57;50.14;99731.13;5132591;27;819;-64
2023/05/15 14:54:38;;;;;;;;;;;;;;;20.66;50.58;99729.53;5132093;27;906;-63
2023/05/15 14:57:06;;;;;;;;;;;;;;;20.77;50.67;99724.19;5134117;27;858;-63
2023/05/15 14:59:33;;;;;;;;;;;;;;;20.73;51.11;99727.16;5135870;27;1950;-62
2023/05/15 15:02:00;;;;;;;;;;;;;;;20.75;51.23;99730.28;5135913;27;909;-64
2023/05/15 15:04:29;;;;;;;;;;;;;;;20.76;51.63;99725.41;5135756;27;890;-63
2023/05/15 15:06:56;;;;;;;;;;;;;;;20.64;51.43;99727.19;5135751;27;878;-63
2023/05/15 15:09:23;;;;;;;;;;;;;;;20.41;51.95;99714.63;5135699;27;827;-63
2023/05/15 15:11:50;;;;;;;;;;;;;;;20.28;52.64;99697.19;5135728;27;883;-63
2023/05/15 15:14:17;;;;;;;;;;;;;;;20.22;53.23;99701.88;5135840;27;795;-63
2023/05/15 15:16:45;;;;;;;;;;;;;;;20.20;53.40;99707.97;5135599;27;898;-63
2023/05/15 15:19:12;;;;;;;;;;;;;;;20.21;52.96;99711.56;5135507;27;1898;-63
2023/05/15 15:21:39;;;;;;;;;;;;;;;20.06;53.49;99722.66;5135305;27;1470;-64
2023/05/15 15:24:06;;;;;;;;;;;;;;;19.96;53.09;99724.69;5135472;27;847;-65
2023/05/15 15:26:33;;;;;;;;;;;;;;;19.85;53.14;99724.41;5135377;27;894;-64
2023/05/15 15:29:01;;;;;;;;;;;;;;;19.76;53.46;99725.94;5135418;27;873;-63
2023/05/15 15:31:28;;;;;;;;;;;;;;;19.79;53.75;99744.63;5135280;27;872;-62
2023/05/15 15:33:56;;;;;;;;;;;;;;;19.66;54.36;99743.22;5135300;27;859;-63
2023/05/15 15:36:23;;;;;;;;;;;;;;;19.44;54.88;99743.31;5135265;27;818;-63
2023/05/15 15:38:50;;;;;;;;;;;;;;;19.32;55.16;99745.81;5135102;27;871;-62
2023/05/15 15:41:17;;;;;;;;;;;;;;;19.22;55.16;99751.84;5135080;27;1975;-63
2023/05/15 15:43:44;;;;;;;;;;;;;;;19.14;55.18;99743.75;5135071;27;795;-63
2023/05/15 15:46:11;;;;;;;;;;;;;;;19.10;54.99;99750.75;5135079;27;862;-64
2023/05/15 15:48:38;;;;;;;;;;;;;;;19.07;54.56;99740.47;5135040;27;893;-63
2023/05/15 15:51:05;;;;;;;;;;;;;;;19.06;53.99;99741.72;5135003;27;819;-64
2023/05/15 15:53:33;;;;;;;;;;;;;;;18.97;52.98;99736.88;5134897;27;883;-63
2023/05/15 15:56:00;;;;;;;;;;;;;;;18.82;52.26;99736.66;5135148;27;890;-63
2023/05/15 15:58:28;;;;;;;;;;;;;;;18.71;52.58;99733.44;5134909;27;858;-63
2023/05/15 16:00:55;;;;;;;;;;;;;;;18.62;52.76;99733.44;5134655;27;1886;-63
2023/05/15 16:03:22;;;;;;;;;;;;;;;18.52;53.06;99735.38;5134745;27;979;-63
2023/05/15 16:05:50;;;;;;;;;;;;;;;18.46;52.64;99742.84;5134546;27;908;-64
2023/05/15 16:08:17;;;;;;;;;;;;;;;18.30;52.62;99729.84;5134474;27;917;-64
2023/05/15 16:10:44;;;;;;;;;;;;;;;18.19;52.51;99726.66;5134572;27;877;-64
2023/05/15 16:13:11;;;;;;;;;;;;;;;18.16;52.49;99737.53;5134560;27;850;-64
2023/05/15 16:15:38;;;;;;;;;;;;;;;18.15;52.75;99744.34;5134524;27;814;-63
2023/05/15 16:18:05;;;;;;;;;;;;;;;18.12;52.93;99741.69;5134478;27;827;-63
2023/05/15 16:20:33;;;;;;;;;;;;;;;18.10;53.21;99744.94;5134153;27;1956;-63
2023/05/15 16:23:00;;;;;;;;;;;;;;;18.04;53.73;99746.75;5134296;27;882;-63
2023/05/15 16:25:26;;;;;;;;;;;;;;;17.93;54.23;99741.56;5134508;27;855;-63
2023/05/15 16:27:53;;;;;;;;;;;;;;;17.82;54.83;99745.97;5134283;27;862;-63
2023/05/15 16:30:20;;;;;;;;;;;;;;;17.72;55.38;99745.88;5134089;27;869;-62
2023/05/15 16:32:47;;;;;;;;;;;;;;;17.65;55.89;99748.91;5134146;27;826;-62
2023/05/15 16:35:14;;;;;;;;;;;;;;;17.65;56.47;99734.94;5133939;27;863;-62
2023/05/15 16:37:41;;;;;;;;;;;;;;;17.62;57.41;99733.03;5133979;27;901;-62
2023/05/15 16:40:08;;;;;;;;;;;;;;;17.51;58.27;99727.81;5133911;27;1902;-61
2023/05/15 16:42:36;;;;;;;;;;;;;;;17.38;59.63;99732.69;5133937;27;826;-62
2023/05/15 16:45:03;;;;;;;;;;;;;;;17.28;60.29;99723.44;5133823;27;893;-62
2023/05/15 16:47:31;;;;;;;;;;;;;;;17.16;61.64;99724.25;5133819;27;862;-61
2023/05/15 16:49:58;;;;;;;;;;;;;;;17.01;62.28;99720.38;5134036;27;894;-62
2023/05/15 16:52:25;;;;;;;;;;;;;;;16.86;63.75;99718.03;5133736;27;834;-62
2023/05/15 16:54:52;;;;;;;;;;;;;;;16.69;65.54;99730.50;5133633;27;839;-63
2023/05/15 16:57:19;;;;;;;;;;;;;;;16.61;66.60;99729.94;5133658;27;807;-62
2023/05/15 16:59:47;;;;;;;;;;;;;;;16.54;67.62;99730.94;5133689;27;1933;-63
2023/05/15 17:02:13;;;;;;;;;;;;;;;16.42;68.71;99720.53;5133584;27;819;-64
2023/05/15 17:04:40;;;;;;;;;;;;;;;16.29;69.24;99728.13;5133435;27;866;-63
2023/05/15 17:07:08;;;;;;;;;;;;;;;16.20;69.62;99714.84;5133472;27;873;-63
2023/05/15 17:09:35;;;;;;;;;;;;;;;16.16;69.42;99707.81;5133444;27;808;-63
2023/05/15 17:12:01;;;;;;;;;;;;;;;16.11;69.56;99717.50;5133394;27;807;-63
2023/05/15 17:14:28;;;;;;;;;;;;;;;16.03;70.07;99725.28;5133224;27;883;-63
2023/05/15 17:16:55;;;;;;;;;;;;;;;15.96;70.53;99713.53;5133300;27;819;-63
2023/05/15 17:19:23;;;;;;;;;;;;;;;15.90;70.30;99704.94;5132390;27;1889;-63
2023/05/15 17:21:49;;;;;;;;;;;;;;;15.81;69.87;99710.38;5133186;27;815;-63
2023/05/15 17:24:16;;;;;;;;;;;;;;;15.75;68.74;99703.78;5133234;27;839;-63
2023/05/15 17:26:43;;;;;;;;;;;;;;;15.73;68.46;99720.16;5133080;27;857;-64
2023/05/15 17:29:11;;;;;;;;;;;;;;;15.69;67.50;99731.38;5133013;27;956;-64
2023/05/15 17:31:39;;;;;;;;;;;;;;;15.68;66.60;99732.56;5133051;27;874;-63
2023/05/15 17:34:07;;;;;;;;;;;;;;;15.63;65.41;99724.75;5132869;27;913;-64
2023/05/15 17:36:34;;;;;;;;;;;;;;;15.56;65.17;99716.59;5132991;27;799;-64
2023/05/15 17:39:00;;;;;;;;;;;;;;;15.47;65.11;99708.88;5133109;27;818;-63
2023/05/15 17:41:28;;;;;;;;;;;;;;;15.38;65.12;99717.84;5132762;27;1938;-63
2023/05/15 17:43:54;;;;;;;;;;;;;;;15.30;65.41;99710.91;5132860;27;921;-63
2023/05/15 17:46:22;;;;;;;;;;;;;;;15.22;65.80;99712.31;5132771;27;850;-64
2023/05/15 17:48:49;;;;;;;;;;;;;;;15.17;65.49;99712.81;5132831;27;902;-64
2023/05/15 17:51:16;;;;;;;;;;;;;;;15.15;64.71;99709.69;5132733;27;890;-63
2023/05/15 17:53:43;;;;;;;;;;;;;;;15.06;64.76;99701.94;5132763;27;822;-65
2023/05/15 17:56:11;;;;;;;;;;;;;;;15.01;63.89;99696.91;5132586;27;807;-64
2023/05/15 17:58:37;;;;;;;;;;;;;;;14.95;63.76;99701.44;5132640;27;818;-63
2023/05/15 18:01:04;;;;;;;;;;;;;;;14.90;63.96;99711.09;5132474;27;1877;-63
2023/05/15 18:03:32;;;;;;;;;;;;;;;14.85;63.68;99715.19;5132497;27;803;-61
2023/05/15 18:05:59;;;;;;;;;;;;;;;14.82;63.70;99727.16;5132548;27;909;-63
2023/05/15 18:08:26;;;;;;;;;;;;;;;14.79;63.62;99730.81;5132478;27;866;-64
2023/05/15 18:10:52;;;;;;;;;;;;;;;14.78;63.65;99737.59;5131230;28;1326;-63
2023/05/15 18:13:19;;;;;;;;;;;;;;;14.77;63.81;99749.94;5132408;28;815;-64
2023/05/15 18:15:46;;;;;;;;;;;;;;;14.76;63.60;99753.16;5132404;27;850;-64
2023/05/15 18:18:13;;;;;;;;;;;;;;;14.67;63.57;99753.75;5132478;27;870;-64
2023/05/15 18:20:40;;;;;;;;;;;;;;;14.60;63.88;99748.34;5132039;27;1889;-63
2023/05/15 18:23:07;;;;;;;;;;;;;;;14.54;64.34;99769.50;5132368;27;839;-64
2023/05/15 18:25:35;;;;;;;;;;;;;;;14.55;63.81;99793.31;5132299;27;814;-63
2023/05/15 18:28:02;;;;;;;;;;;;;;;14.57;63.99;99802.03;5132326;27;831;-63
2023/05/15 18:30:30;;;;;;;;;;;;;;;14.57;63.98;99802.81;5132251;27;941;-63
2023/05/15 18:32:57;;;;;;;;;;;;;;;14.57;64.14;99804.81;5135925;27;843;-63
2023/05/15 18:35:24;;;;;;;;;;;;;;;14.52;63.95;99792.19;5136383;27;831;-63
2023/05/15 18:37:50;;;;;;;;;;;;;;;14.48;64.40;99789.47;5136428;27;869;-64
2023/05/15 18:40:18;;;;;;;;;;;;;;;14.39;64.69;99788.50;5136238;27;1960;-62
2023/05/15 18:42:45;;;;;;;;;;;;;;;14.34;65.16;99788.97;5136268;27;826;-63
2023/05/15 18:45:12;;;;;;;;;;;;;;;14.28;66.07;99791.50;5136292;27;834;-63
2023/05/15 18:47:39;;;;;;;;;;;;;;;14.19;66.96;99783.72;5136187;27;846;-63
2023/05/15 18:50:06;;;;;;;;;;;;;;;14.06;68.38;99775.25;5136138;27;830;-63
2023/05/15 18:52:32;;;;;;;;;;;;;;;13.96;69.46;99786.56;5136103;27;878;-63
2023/05/15 18:55:00;;;;;;;;;;;;;;;13.88;71.17;99803.34;5136090;27;803;-63
2023/05/15 18:57:27;;;;;;;;;;;;;;;13.81;71.97;99806.28;5135989;27;827;-64
2023/05/15 18:59:54;;;;;;;;;;;;;;;13.71;73.95;99810.03;5135892;27;1882;-63
2023/05/15 19:02:21;;;;;;;;;;;;;;;13.55;75.69;99812.69;5135718;27;901;-63
2023/05/15 19:04:47;;;;;;;;;;;;;;;13.46;78.30;99816.00;5135874;27;953;-63
2023/05/15 19:07:15;;;;;;;;;;;;;;;13.35;80.91;99815.41;5135883;27;807;-61
2023/05/15 19:09:41;;;;;;;;;;;;;;;13.17;83.48;99821.97;5135727;27;913;-64
2023/05/15 19:12:08;;;;;;;;;;;;;;;13.03;85.70;99824.97;5135835;27;843;-63
2023/05/15 19:14:35;;;;;;;;;;;;;;;12.90;90.68;99821.19;5135653;27;870;-63
2023/05/15 19:17:02;;;;;;;;;;;;;;;12.81;93.32;99811.41;5135921;27;834;-63
2023/05/15 19:19:29;;;;;;;;;;;;;;;12.75;95.63;99828.94;5135279;27;1877;-63
2023/05/15 19:21:56;;;;;;;;;;;;;;;12.64;98.40;99817.97;5135313;27;1154;-63
2023/05/15 19:24:23;;;;;;;;;;;;;;;12.48;100.00;99815.78;5135508;27;811;-63
2023/05/15 19:26:50;;;;;;;;;;;;;;;12.31;100.00;99822.34;5135674;27;906;-63
2023/05/15 19:29:17;;;;;;;;;;;;;;;12.13;100.00;99817.00;5135372;27;886;-64
2023/05/15 19:31:44;;;;;;;;;;;;;;;12.00;100.00;99814.75;5135344;27;817;-64
2023/05/15 19:34:11;;;;;;;;;;;;;;;11.87;100.00;99813.69;5135297;27;869;-63
2023/05/15 19:36:38;;;;;;;;;;;;;;;11.74;100.00;99809.88;5135218;27;1052;-63
2023/05/15 19:39:05;;;;;;;;;;;;;;;11.59;100.00;99814.75;5135210;27;822;-63
2023/05/15 19:41:32;;;;;;;;;;;;;;;11.48;100.00;99806.53;5135034;27;1909;-62
2023/05/15 19:43:59;;;;;;;;;;;;;;;11.41;100.00;99806.56;5134753;27;1004;-63
2023/05/15 19:46:26;;;;;;;;;;;;;;;11.42;100.00;99806.19;5135093;27;874;-64
2023/05/15 19:48:53;;;;;;;;;;;;;;;11.45;100.00;99799.03;5134945;27;1154;-64
2023/05/15 19:51:20;;;;;;;;;;;;;;;11.44;100.00;99806.56;5135056;27;814;-64
2023/05/15 19:53:48;;;;;;;;;;;;;;;11.43;100.00;99804.97;5134907;27;858;-64
2023/05/15 19:56:14;;;;;;;;;;;;;;;11.43;100.00;99804.19;5135218;27;815;-63
2023/05/15 19:58:41;;;;;;;;;;;;;;;11.44;100.00;99808.53;5133695;27;905;-63
2023/05/15 20:01:08;;;;;;;;;;;;;;;11.42;100.00;99805.41;5134681;27;1862;-63
2023/05/15 20:03:35;;;;;;;;;;;;;;;11.42;100.00;99811.72;5134782;27;858;-63
2023/05/15 20:06:02;;;;;;;;;;;;;;;11.42;100.00;99813.69;5134578;27;812;-64
2023/05/15 20:08:29;;;;;;;;;;;;;;;11.42;100.00;99808.16;5134691;27;886;-65
2023/05/15 20:10:56;;;;;;;;;;;;;;;11.37;100.00;99790.03;5133243;27;1285;-63
2023/05/15 20:13:23;;;;;;;;;;;;;;;11.32;100.00;99789.66;5134577;27;878;-64
2023/05/15 20:15:56;;;;;;;;;;;;;;;11.23;100.00;99799.22;5134616;27;803;-64
2023/05/15 20:18:26;;;;;;;;;;;;;;;11.17;100.00;99794.53;5134515;27;894;-61
2023/05/15 20:20:53;;;;;;;;;;;;;;;11.16;100.00;99793.75;5134230;27;1885;-65
2023/05/15 20:23:20;;;;;;;;;;;;;;;11.21;100.00;99786.97;5134469;27;865;-65
2023/05/15 20:25:48;;;;;;;;;;;;;;;11.21;100.00;99789.75;5134327;27;807;-64
2023/05/15 20:28:16;;;;;;;;;;;;;;;11.23;100.00;99773.53;5134325;27;894;-64
2023/05/15 20:30:46;;;;;;;;;;;;;;;11.22;100.00;99769.16;5132804;27;1417;-63
2023/05/15 20:33:13;;;;;;;;;;;;;;;11.19;100.00;99762.47;5134191;27;827;-65
2023/05/15 20:35:41;;;;;;;;;;;;;;;11.18;100.00;99757.34;5134126;27;901;-63
2023/05/15 20:38:09;;;;;;;;;;;;;;;11.20;100.00;99757.72;5134097;27;938;-63
2023/05/15 20:40:36;;;;;;;;;;;;;;;11.20;100.00;99755.78;5133893;27;1969;-63
2023/05/15 20:43:03;;;;;;;;;;;;;;;11.19;100.00;99761.69;5133927;27;854;-63
2023/05/15 20:45:31;;;;;;;;;;;;;;;11.19;100.00;99762.47;5133958;27;853;-63
2023/05/15 20:47:58;;;;;;;;;;;;;;;11.18;100.00;99758.16;5133813;27;831;-65
2023/05/15 20:50:25;;;;;;;;;;;;;;;11.17;100.00;99755.78;5133852;27;796;-64
2023/05/15 20:52:53;;;;;;;;;;;;;;;11.13;100.00;99747.50;5133746;27;866;-63
2023/05/15 20:55:20;;;;;;;;;;;;;;;11.07;100.00;99748.34;5132929;27;898;-63
2023/05/15 20:57:47;;;;;;;;;;;;;;;11.03;100.00;99746.41;5133619;27;879;-63
2023/05/15 21:00:15;;;;;;;;;;;;;;;11.04;100.00;99736.13;5133453;27;1953;-64
2023/05/15 21:02:43;;;;;;;;;;;;;;;10.99;100.00;99737.34;5133588;27;871;-64
2023/05/15 21:05:10;;;;;;;;;;;;;;;10.96;100.00;99738.16;5133573;27;858;-65
2023/05/15 21:07:37;;;;;;;;;;;;;;;10.97;100.00;99736.19;5133471;27;894;-63
2023/05/15 21:10:04;;;;;;;;;;;;;;;11.00;100.00;99733.38;5133356;27;834;-63
2023/05/15 21:12:31;;;;;;;;;;;;;;;11.04;100.00;99733.38;5133425;27;831;-63
2023/05/15 21:14:59;;;;;;;;;;;;;;;11.02;100.00;99730.22;5133530;27;831;-64
2023/05/15 21:17:26;;;;;;;;;;;;;;;10.95;100.00;99730.28;5133267;27;925;-64
2023/05/15 21:19:53;;;;;;;;;;;;;;;10.97;100.00;99734.22;5131579;27;1897;-63
2023/05/15 21:22:20;;;;;;;;;;;;;;;11.02;100.00;99730.22;5133266;27;831;-64
2023/05/15 21:24:45;;;;;;;;;;;;;;;10.98;100.00;99716.41;5133300;27;906;-63
2023/05/15 21:27:12;;;;;;;;;;;;;;;10.93;100.00;99725.16;5133092;27;898;-63
2023/05/15 21:29:39;;;;;;;;;;;;;;;10.93;100.00;99727.91;5133040;27;822;-64
2023/05/15 21:32:06;;;;;;;;;;;;;;;10.97;100.00;99736.19;5131704;27;1182;-63
2023/05/15 21:34:33;;;;;;;;;;;;;;;11.03;100.00;99740.88;5133008;27;815;-63
2023/05/15 21:37:00;;;;;;;;;;;;;;;11.03;100.00;99732.59;5132918;27;878;-64
2023/05/15 21:39:26;;;;;;;;;;;;;;;11.02;100.00;99739.31;5132814;27;1914;-64
2023/05/15 21:41:54;;;;;;;;;;;;;;;11.04;100.00;99731.38;5132857;27;879;-64
2023/05/15 21:44:21;;;;;;;;;;;;;;;11.02;100.00;99736.53;5132930;27;802;-65
2023/05/15 21:46:49;;;;;;;;;;;;;;;10.97;100.00;99723.16;5132721;27;953;-63
2023/05/15 21:49:16;;;;;;;;;;;;;;;10.89;100.00;99712.56;5132806;27;843;-63
2023/05/15 21:51:43;;;;;;;;;;;;;;;10.82;100.00;99713.41;5132737;27;806;-63
2023/05/15 21:54:10;;;;;;;;;;;;;;;10.75;100.00;99717.00;5132659;27;810;-63
2023/05/15 21:56:37;;;;;;;;;;;;;;;10.70;100.00;99722.94;5132658;27;803;-63
2023/05/15 21:59:04;;;;;;;;;;;;;;;10.66;100.00;99711.13;5132764;27;851;-63
2023/05/15 22:01:31;;;;;;;;;;;;;;;10.67;100.00;99715.47;5132606;27;1885;-64
2023/05/15 22:03:58;;;;;;;;;;;;;;;10.73;100.00;99715.81;5131275;27;1449;-65
2023/05/15 22:06:25;;;;;;;;;;;;;;;10.77;100.00;99713.81;5132399;27;850;-65
2023/05/15 22:08:52;;;;;;;;;;;;;;;10.78;100.00;99701.56;5132469;27;967;-65
2023/05/15 22:11:19;;;;;;;;;;;;;;;10.78;100.00;99712.63;5132781;27;1107;-63
2023/05/15 22:13:46;;;;;;;;;;;;;;;10.77;100.00;99713.81;5132468;27;811;-63
2023/05/15 22:16:14;;;;;;;;;;;;;;;10.75;100.00;99707.91;5132466;27;882;-64
2023/05/15 22:18:43;;;;;;;;;;;;;;;10.75;100.00;99699.59;5132409;27;834;-63
2023/05/15 22:21:10;;;;;;;;;;;;;;;10.77;100.00;99711.06;5132309;27;2023;-63
2023/05/15 22:23:37;;;;;;;;;;;;;;;10.77;100.00;99703.53;5132879;27;894;-64
2023/05/15 22:26:04;;;;;;;;;;;;;;;10.80;100.00;99702.75;5132434;27;878;-65
2023/05/15 22:28:31;;;;;;;;;;;;;;;10.85;100.00;99707.03;5132668;27;877;-65
2023/05/15 22:30:58;;;;;;;;;;;;;;;10.91;100.00;99712.94;5132430;27;909;-65
2023/05/15 22:33:25;;;;;;;;;;;;;;;10.92;100.00;99718.03;5133018;27;802;-64
2023/05/15 22:35:53;;;;;;;;;;;;;;;10.89;100.00;99715.31;5132675;27;859;-65
2023/05/15 22:38:20;;;;;;;;;;;;;;;10.82;100.00;99702.34;5133073;27;941;-63
2023/05/15 22:40:53;;;;;;;;;;;;;;;10.79;100.00;99708.66;5132576;27;1905;-63
2023/05/15 22:43:21;;;;;;;;;;;;;;;10.71;100.00;99707.94;5132263;27;925;-64
2023/05/15 22:45:48;;;;;;;;;;;;;;;10.61;100.00;99700.50;5132185;27;867;-65
2023/05/15 22:48:15;;;;;;;;;;;;;;;10.54;100.00;99700.53;5132104;27;882;-63
2023/05/15 22:50:43;;;;;;;;;;;;;;;10.50;100.00;99694.28;5132225;27;818;-63
2023/05/15 22:53:10;;;;;;;;;;;;;;;10.48;100.00;99691.13;5132037;27;834;-64
2023/05/15 22:55:36;;;;;;;;;;;;;;;10.45;100.00;99681.66;5132169;27;847;-65
2023/05/15 22:58:03;;;;;;;;;;;;;;;10.45;100.00;99678.09;5132117;27;902;-63
2023/05/15 23:00:30;;;;;;;;;;;;;;;10.45;100.00;99673.34;5131954;27;1886;-63
2023/05/15 23:02:58;;;;;;;;;;;;;;;10.51;100.00;99674.50;5132106;27;897;-64
2023/05/15 23:05:25;;;;;;;;;;;;;;;10.57;100.00;99674.88;5132032;27;914;-63
2023/05/15 23:07:52;;;;;;;;;;;;;;;10.63;100.00;99674.03;5131940;27;835;-63
2023/05/15 23:10:18;;;;;;;;;;;;;;;10.67;100.00;99670.44;5131964;27;854;-63
2023/05/15 23:12:45;;;;;;;;;;;;;;;10.63;100.00;99668.50;5131949;27;839;-65
2023/05/15 23:15:13;;;;;;;;;;;;;;;10.59;100.00;99659.44;5132141;27;897;-64
2023/05/15 23:17:40;;;;;;;;;;;;;;;10.52;100.00;99654.00;5133314;27;873;-65
2023/05/15 23:20:10;;;;;;;;;;;;;;;10.50;100.00;99655.59;5135437;27;1953;-65
2023/05/15 23:22:37;;;;;;;;;;;;;;;10.46;100.00;99646.53;5135559;27;842;-63
2023/05/15 23:25:05;;;;;;;;;;;;;;;10.44;100.00;99640.63;5135486;27;870;-64